Time;durP1;ratioP1;P1;durP2;ratioP2;P2;SDS_P1;SDS_P2;PMS_P1;PMS_P2;Temp;Humidity;BMP_temperature;BMP_pressure;BME280_temperature;BME280_humidity;BME280_pressure;Samples;Min_cycle;Max_cycle;Signal;HPM_P1;HPM_P2
2022/04/15 00:01:01;;;;;;;4.90;4.38;;;;;;;;;;2085843;28;20021;-61
2022/04/15 00:02:20;;;;;;;3.65;3.35;;;;;;;;;;2085690;28;20017;-60
2022/04/15 00:03:39;;;;;;;3.95;3.65;;;;;;;;;;2084970;28;20434;-61
2022/04/15 00:04:58;;;;;;;3.10;2.90;;;;;;;;;;2084904;28;20467;-60
2022/04/15 00:06:17;;;;;;;6.35;3.72;;;;;;;;;;2085330;28;20092;-61
2022/04/15 00:07:36;;;;;;;4.35;3.95;;;;;;;;;;2084452;28;20029;-61
2022/04/15 00:08:55;;;;;;;3.60;3.30;;;;;;;;;;2084607;28;20060;-62
2022/04/15 00:10:14;;;;;;;3.53;3.05;;;;;;;;;;2084871;28;20041;-61
2022/04/15 00:11:33;;;;;;;3.40;3.15;;;;;;;;;;2084634;28;20057;-61
2022/04/15 00:12:54;;;;;;;5.82;3.55;;;;;;;;;;2086109;28;20423;-61
2022/04/15 00:14:12;;;;;;;3.22;3.03;;;;;;;;;;2084829;28;20037;-61
2022/04/15 00:15:32;;;;;;;3.10;2.90;;;;;;;;;;2086058;28;20060;-61
2022/04/15 00:16:51;;;;;;;4.18;3.78;;;;;;;;;;2087493;28;20398;-61
2022/04/15 00:18:10;;;;;;;3.03;2.72;;;;;;;;;;2085686;28;20045;-61
2022/04/15 00:19:28;;;;;;;3.13;2.75;;;;;;;;;;2085811;28;20488;-61
2022/04/15 00:20:47;;;;;;;3.47;3.20;;;;;;;;;;2086051;28;20471;-61
2022/04/15 00:22:06;;;;;;;2.75;2.55;;;;;;;;;;2086318;28;20026;-61
2022/04/15 00:23:25;;;;;;;3.20;2.90;;;;;;;;;;2084747;28;20018;-60
2022/04/15 00:24:44;;;;;;;3.25;3.00;;;;;;;;;;2086225;28;20063;-61
2022/04/15 00:26:03;;;;;;;4.05;3.00;;;;;;;;;;2085630;28;20491;-61
2022/04/15 00:27:22;;;;;;;2.72;2.53;;;;;;;;;;2086565;28;20083;-61
2022/04/15 00:28:41;;;;;;;3.78;2.80;;;;;;;;;;2083709;28;20029;-61
2022/04/15 00:30:00;;;;;;;4.95;2.78;;;;;;;;;;2085385;28;20033;-60
2022/04/15 00:31:20;;;;;;;5.47;2.90;;;;;;;;;;2087360;28;20052;-61
2022/04/15 00:32:41;;;;;;;2.83;2.60;;;;;;;;;;2086754;28;20041;-60
2022/04/15 00:34:00;;;;;;;2.83;2.70;;;;;;;;;;2086065;28;20081;-61
2022/04/15 00:35:19;;;;;;;4.70;2.78;;;;;;;;;;2084146;28;20033;-61
2022/04/15 00:36:38;;;;;;;2.70;2.45;;;;;;;;;;2085041;28;20115;-61
2022/04/15 00:37:56;;;;;;;3.45;2.75;;;;;;;;;;2085898;28;20025;-60
2022/04/15 00:39:15;;;;;;;2.42;2.22;;;;;;;;;;2086139;28;20021;-61
2022/04/15 00:40:34;;;;;;;4.03;2.00;;;;;;;;;;2083537;28;20026;-61
2022/04/15 00:41:53;;;;;;;2.28;2.13;;;;;;;;;;2083667;28;20030;-61
2022/04/15 00:43:12;;;;;;;3.00;2.72;;;;;;;;;;2087253;28;20025;-61
2022/04/15 00:44:31;;;;;;;2.80;2.35;;;;;;;;;;2082855;28;20029;-61
2022/04/15 00:45:49;;;;;;;2.83;2.30;;;;;;;;;;2082488;28;20034;-61
2022/04/15 00:47:14;;;;;;;3.35;2.70;;;;;;;;;;2085819;28;20033;-61
2022/04/15 00:48:34;;;;;;;2.95;2.30;;;;;;;;;;2085744;28;20104;-61
2022/04/15 00:49:53;;;;;;;4.80;2.53;;;;;;;;;;2085227;28;20029;-61
2022/04/15 00:51:12;;;;;;;2.72;2.42;;;;;;;;;;2083631;28;20022;-59
2022/04/15 00:52:34;;;;;;;2.38;2.20;;;;;;;;;;2085180;28;20120;-61
2022/04/15 00:53:54;;;;;;;2.70;2.50;;;;;;;;;;2086360;28;20104;-61
2022/04/15 00:55:13;;;;;;;3.78;2.58;;;;;;;;;;2086217;28;20060;-61
2022/04/15 00:56:36;;;;;;;2.60;2.40;;;;;;;;;;2084758;28;20076;-61
2022/04/15 00:57:59;;;;;;;2.25;2.13;;;;;;;;;;2085034;28;20390;-60
2022/04/15 00:59:20;;;;;;;4.80;2.22;;;;;;;;;;2084423;28;20414;-60
2022/04/15 01:00:39;;;;;;;3.45;2.60;;;;;;;;;;2086313;28;20022;-61
2022/04/15 01:01:59;;;;;;;2.53;2.33;;;;;;;;;;2087403;28;20476;-60
2022/04/15 01:03:21;;;;;;;2.08;1.95;;;;;;;;;;2088836;28;20025;-61
2022/04/15 01:04:40;;;;;;;2.35;2.15;;;;;;;;;;2087657;28;20021;-60
2022/04/15 01:05:59;;;;;;;3.40;2.55;;;;;;;;;;2086840;28;20104;-61
2022/04/15 01:07:19;;;;;;;3.33;2.53;;;;;;;;;;2085037;28;20025;-61
2022/04/15 01:08:40;;;;;;;3.10;2.50;;;;;;;;;;2087075;28;20559;-61
2022/04/15 01:09:59;;;;;;;2.70;2.30;;;;;;;;;;2086254;28;20033;-60
2022/04/15 01:11:19;;;;;;;4.25;2.67;;;;;;;;;;2090406;28;20040;-60
2022/04/15 01:12:39;;;;;;;3.83;2.88;;;;;;;;;;2087312;28;20507;-61
2022/04/15 01:14:00;;;;;;;3.58;3.10;;;;;;;;;;2088930;28;20034;-61
2022/04/15 01:15:20;;;;;;;3.83;2.70;;;;;;;;;;2087508;28;20025;-59
2022/04/15 01:16:39;;;;;;;2.60;2.40;;;;;;;;;;2087018;28;20118;-61
2022/04/15 01:17:58;;;;;;;3.00;2.72;;;;;;;;;;2087414;28;20091;-61
2022/04/15 01:19:17;;;;;;;3.97;2.92;;;;;;;;;;2087816;28;20021;-60
2022/04/15 01:20:36;;;;;;;4.38;2.72;;;;;;;;;;2086939;28;20056;-61
2022/04/15 01:21:56;;;;;;;3.33;2.67;;;;;;;;;;2085856;28;20394;-60
2022/04/15 01:23:15;;;;;;;4.00;2.45;;;;;;;;;;2086104;28;20100;-61
2022/04/15 01:24:38;;;;;;;2.83;2.63;;;;;;;;;;2086493;28;20025;-61
2022/04/15 01:25:57;;;;;;;2.67;2.50;;;;;;;;;;2088651;28;20021;-61
2022/04/15 01:27:26;;;;;;;3.25;2.90;;;;;;;;;;2084331;28;20507;-61
2022/04/15 01:28:45;;;;;;;3.20;2.90;;;;;;;;;;2087083;28;20224;-61
2022/04/15 01:30:05;;;;;;;3.15;2.90;;;;;;;;;;2085400;28;20033;-61
2022/04/15 01:31:29;;;;;;;3.45;2.83;;;;;;;;;;2085949;28;20297;-61
2022/04/15 01:32:48;;;;;;;3.60;2.95;;;;;;;;;;2088465;28;20037;-60
2022/04/15 01:34:07;;;;;;;4.68;2.35;;;;;;;;;;2085995;28;20088;-60
2022/04/15 01:35:26;;;;;;;3.03;2.83;;;;;;;;;;2085937;28;20120;-62
2022/04/15 01:36:45;;;;;;;6.03;2.72;;;;;;;;;;2086178;28;20037;-60
2022/04/15 01:38:06;;;;;;;7.32;2.97;;;;;;;;;;2086398;28;20025;-60
2022/04/15 01:39:26;;;;;;;3.30;3.00;;;;;;;;;;2086732;28;20519;-61
2022/04/15 01:40:45;;;;;;;3.25;2.90;;;;;;;;;;2085698;28;20033;-62
2022/04/15 01:42:04;;;;;;;3.33;3.03;;;;;;;;;;2084558;28;20075;-61
2022/04/15 01:43:23;;;;;;;5.57;2.70;;;;;;;;;;2085529;28;20069;-61
2022/04/15 01:44:42;;;;;;;3.85;3.00;;;;;;;;;;2081758;28;20026;-59
2022/04/15 01:46:00;;;;;;;3.97;3.08;;;;;;;;;;2084669;28;20026;-61
2022/04/15 01:47:19;;;;;;;4.07;2.90;;;;;;;;;;2084685;28;20064;-60
2022/04/15 01:48:38;;;;;;;3.67;3.38;;;;;;;;;;2087257;28;20029;-60
2022/04/15 01:49:58;;;;;;;3.80;3.00;;;;;;;;;;2087591;28;20433;-59
2022/04/15 01:51:16;;;;;;;3.25;3.00;;;;;;;;;;2087061;28;20036;-59
2022/04/15 01:52:35;;;;;;;3.47;3.08;;;;;;;;;;2087683;28;20041;-60
2022/04/15 01:53:55;;;;;;;3.00;2.80;;;;;;;;;;2086584;28;20502;-61
2022/04/15 01:55:14;;;;;;;2.88;2.67;;;;;;;;;;2085863;28;20033;-60
2022/04/15 01:56:32;;;;;;;3.58;2.85;;;;;;;;;;2086414;28;20108;-60
2022/04/15 01:57:51;;;;;;;2.70;2.50;;;;;;;;;;2085255;28;20450;-61
2022/04/15 01:59:10;;;;;;;4.18;2.65;;;;;;;;;;2086166;28;20022;-60
2022/04/15 02:00:29;;;;;;;3.78;2.97;;;;;;;;;;2088624;28;20028;-60
2022/04/15 02:01:48;;;;;;;4.00;2.88;;;;;;;;;;2086662;28;20471;-60
2022/04/15 02:03:07;;;;;;;2.35;2.15;;;;;;;;;;2085379;28;20495;-60
2022/04/15 02:04:27;;;;;;;6.30;2.40;;;;;;;;;;2084415;28;20033;-60
2022/04/15 02:05:46;;;;;;;3.05;2.50;;;;;;;;;;2086374;28;20025;-60
2022/04/15 02:07:05;;;;;;;2.90;2.38;;;;;;;;;;2086125;28;20029;-61
2022/04/15 02:08:24;;;;;;;2.88;2.40;;;;;;;;;;2085967;28;20041;-60
2022/04/15 02:09:43;;;;;;;3.95;2.30;;;;;;;;;;2085995;28;20017;-61
2022/04/15 02:11:02;;;;;;;3.40;2.88;;;;;;;;;;2084238;28;20387;-60
2022/04/15 02:12:21;;;;;;;4.07;3.05;;;;;;;;;;2085333;28;20442;-61
2022/04/15 02:13:39;;;;;;;2.45;2.20;;;;;;;;;;2086597;28;20033;-61
2022/04/15 02:14:58;;;;;;;2.35;2.15;;;;;;;;;;2083306;28;20033;-61
2022/04/15 02:16:17;;;;;;;2.80;2.60;;;;;;;;;;2085894;28;20108;-60
2022/04/15 02:17:36;;;;;;;2.30;2.10;;;;;;;;;;2085803;28;20053;-60
2022/04/15 02:18:55;;;;;;;2.50;2.33;;;;;;;;;;2086207;28;20032;-61
2022/04/15 02:20:14;;;;;;;5.30;2.58;;;;;;;;;;2085060;28;20029;-61
2022/04/15 02:21:33;;;;;;;2.20;1.95;;;;;;;;;;2085138;28;20029;-60
2022/04/15 02:22:54;;;;;;;1.80;1.70;;;;;;;;;;2087528;28;20025;-60
2022/04/15 02:24:14;;;;;;;2.90;2.38;;;;;;;;;;2085120;28;20037;-61
2022/04/15 02:25:32;;;;;;;2.25;2.08;;;;;;;;;;2089179;28;20348;-61
2022/04/15 02:26:51;;;;;;;2.45;1.95;;;;;;;;;;2084761;28;20033;-60
2022/04/15 02:28:11;;;;;;;3.35;2.15;;;;;;;;;;2086220;28;20029;-60
2022/04/15 02:29:30;;;;;;;2.42;2.17;;;;;;;;;;2085788;28;20051;-61
2022/04/15 02:30:48;;;;;;;2.22;2.08;;;;;;;;;;2083728;28;20032;-60
2022/04/15 02:32:08;;;;;;;1.90;1.67;;;;;;;;;;2086365;28;20412;-61
2022/04/15 02:33:27;;;;;;;1.75;1.65;;;;;;;;;;2086843;28;20402;-60
2022/04/15 02:34:46;;;;;;;1.88;1.77;;;;;;;;;;2086710;28;20037;-61
2022/04/15 02:36:05;;;;;;;2.67;1.70;;;;;;;;;;2085290;28;20110;-59
2022/04/15 02:37:24;;;;;;;1.95;1.85;;;;;;;;;;2090506;28;20450;-60
2022/04/15 02:38:43;;;;;;;1.83;1.73;;;;;;;;;;2085030;28;20108;-61
2022/04/15 02:40:02;;;;;;;2.10;1.70;;;;;;;;;;2085058;28;20030;-60
2022/04/15 02:41:21;;;;;;;2.22;1.85;;;;;;;;;;2083128;28;20033;-61
2022/04/15 02:42:40;;;;;;;2.05;1.83;;;;;;;;;;2085630;28;20026;-60
2022/04/15 02:43:59;;;;;;;2.05;1.60;;;;;;;;;;2086843;28;20033;-60
2022/04/15 02:45:18;;;;;;;1.88;1.30;;;;;;;;;;2085550;28;20025;-60
2022/04/15 02:46:37;;;;;;;2.10;1.30;;;;;;;;;;2086144;28;20623;-60
2022/04/15 02:47:56;;;;;;;1.40;1.30;;;;;;;;;;2087022;28;20021;-59
2022/04/15 02:49:15;;;;;;;3.00;1.48;;;;;;;;;;2086001;28;20021;-60
2022/04/15 02:50:34;;;;;;;1.40;1.30;;;;;;;;;;2087022;28;20032;-61
2022/04/15 02:51:53;;;;;;;1.13;1.10;;;;;;;;;;2086761;28;20025;-60
2022/04/15 02:53:12;;;;;;;1.88;1.00;;;;;;;;;;2084808;28;20032;-61
2022/04/15 02:54:31;;;;;;;1.38;1.17;;;;;;;;;;2087075;28;20073;-61
2022/04/15 02:55:50;;;;;;;5.38;1.50;;;;;;;;;;2082989;28;20017;-61
2022/04/15 02:57:09;;;;;;;1.90;1.20;;;;;;;;;;2085850;28;20499;-60
2022/04/15 02:58:28;;;;;;;0.82;0.73;;;;;;;;;;2085551;28;20356;-61
2022/04/15 02:59:47;;;;;;;2.50;1.15;;;;;;;;;;2085160;28;20025;-61
2022/04/15 03:01:06;;;;;;;1.60;0.95;;;;;;;;;;2085204;28;20022;-60
2022/04/15 03:02:25;;;;;;;3.15;0.95;;;;;;;;;;2085999;28;20033;-60
2022/04/15 03:03:44;;;;;;;6.28;1.30;;;;;;;;;;2087167;28;20029;-60
2022/04/15 03:05:03;;;;;;;1.10;1.00;;;;;;;;;;2086738;28;20100;-61
2022/04/15 03:06:22;;;;;;;3.63;1.17;;;;;;;;;;2085606;28;20026;-60
2022/04/15 03:07:41;;;;;;;1.52;1.00;;;;;;;;;;2087421;28;20025;-61
2022/04/15 03:09:00;;;;;;;1.20;0.95;;;;;;;;;;2085825;28;20029;-60
2022/04/15 03:10:19;;;;;;;2.17;1.02;;;;;;;;;;2085169;28;20442;-60
2022/04/15 03:11:38;;;;;;;1.85;0.85;;;;;;;;;;2085440;28;20400;-60
2022/04/15 03:12:57;;;;;;;1.63;1.02;;;;;;;;;;2084828;28;20515;-60
2022/04/15 03:14:17;;;;;;;2.40;0.93;;;;;;;;;;2086317;28;20486;-61
2022/04/15 03:15:37;;;;;;;1.40;1.13;;;;;;;;;;2085456;28;20033;-60
2022/04/15 03:16:56;;;;;;;2.45;0.90;;;;;;;;;;2085772;28;20115;-59
2022/04/15 03:18:15;;;;;;;1.13;0.98;;;;;;;;;;2084627;28;20060;-59
2022/04/15 03:19:34;;;;;;;1.58;1.00;;;;;;;;;;2087624;28;20033;-60
2022/04/15 03:20:52;;;;;;;2.88;0.93;;;;;;;;;;2084775;28;20025;-60
2022/04/15 03:22:11;;;;;;;2.65;0.93;;;;;;;;;;2084640;28;20033;-60
2022/04/15 03:23:30;;;;;;;1.52;1.10;;;;;;;;;;2085155;28;20025;-59
2022/04/15 03:24:52;;;;;;;3.95;1.05;;;;;;;;;;2086431;28;20037;-60
2022/04/15 03:26:11;;;;;;;1.33;1.00;;;;;;;;;;2085343;28;20026;-60
2022/04/15 03:27:30;;;;;;;4.18;0.80;;;;;;;;;;2085191;28;20025;-60
2022/04/15 03:28:49;;;;;;;1.30;1.00;;;;;;;;;;2083179;28;20430;-60
2022/04/15 03:30:08;;;;;;;1.83;1.10;;;;;;;;;;2084857;28;20037;-60
2022/04/15 03:31:27;;;;;;;0.80;0.80;;;;;;;;;;2084337;28;20029;-60
2022/04/15 03:32:47;;;;;;;3.50;0.90;;;;;;;;;;2086299;28;20040;-59
2022/04/15 03:34:06;;;;;;;1.25;0.85;;;;;;;;;;2086543;28;20438;-60
2022/04/15 03:35:25;;;;;;;3.05;1.00;;;;;;;;;;2084885;28;20037;-59
2022/04/15 03:36:45;;;;;;;2.55;0.82;;;;;;;;;;2084524;28;20040;-60
2022/04/15 03:38:04;;;;;;;2.58;1.33;;;;;;;;;;2084876;28;20032;-60
2022/04/15 03:39:23;;;;;;;2.35;1.17;;;;;;;;;;2083931;28;20030;-60
2022/04/15 03:40:42;;;;;;;1.67;1.05;;;;;;;;;;2085816;28;20033;-60
2022/04/15 03:42:02;;;;;;;1.15;1.05;;;;;;;;;;2086278;28;20056;-59
2022/04/15 03:43:21;;;;;;;1.30;1.20;;;;;;;;;;2085943;28;20034;-60
2022/04/15 03:44:39;;;;;;;1.45;1.05;;;;;;;;;;2085896;28;20108;-60
2022/04/15 03:45:59;;;;;;;1.13;1.08;;;;;;;;;;2085222;28;20403;-59
2022/04/15 03:47:18;;;;;;;2.35;1.10;;;;;;;;;;2086098;28;20033;-60
2022/04/15 03:48:37;;;;;;;1.88;1.10;;;;;;;;;;2086449;28;20037;-59
2022/04/15 03:49:56;;;;;;;1.42;1.33;;;;;;;;;;2084116;28;20069;-60
2022/04/15 03:51:15;;;;;;;2.33;1.40;;;;;;;;;;2085006;28;20029;-59
2022/04/15 03:52:38;;;;;;;1.55;1.40;;;;;;;;;;2085879;28;20273;-58
2022/04/15 03:53:57;;;;;;;;;;;;;;;;;;2087105;28;20060;-59
2022/04/15 03:55:19;;;;;;;3.65;1.13;;;;;;;;;;2086354;28;19913;-60
2022/04/15 03:56:39;;;;;;;1.73;1.38;;;;;;;;;;2085849;28;20108;-59
2022/04/15 03:57:57;;;;;;;2.67;1.50;;;;;;;;;;2085455;28;20017;-59
2022/04/15 03:59:16;;;;;;;1.38;1.27;;;;;;;;;;2085639;28;20021;-59
2022/04/15 04:00:35;;;;;;;1.20;1.10;;;;;;;;;;2085322;28;20119;-59
2022/04/15 04:01:54;;;;;;;2.30;1.10;;;;;;;;;;2084121;28;20029;-60
2022/04/15 04:03:14;;;;;;;1.80;1.40;;;;;;;;;;2085264;28;20021;-60
2022/04/15 04:04:33;;;;;;;1.73;1.33;;;;;;;;;;2083830;28;20025;-58
2022/04/15 04:05:52;;;;;;;1.60;1.50;;;;;;;;;;2087716;28;20036;-60
2022/04/15 04:07:11;;;;;;;1.45;1.30;;;;;;;;;;2087027;28;20474;-59
2022/04/15 04:08:30;;;;;;;2.60;1.55;;;;;;;;;;2084597;28;20037;-59
2022/04/15 04:09:49;;;;;;;3.83;1.52;;;;;;;;;;2083869;28;20064;-59
2022/04/15 04:11:08;;;;;;;2.65;1.48;;;;;;;;;;2083300;28;20029;-59
2022/04/15 04:12:31;;;;;;;2.35;1.48;;;;;;;;;;2083526;28;20033;-60
2022/04/15 04:13:50;;;;;;;1.38;1.10;;;;;;;;;;2086707;28;20033;-60
2022/04/15 04:15:09;;;;;;;2.30;1.73;;;;;;;;;;2084095;28;20021;-60
2022/04/15 04:16:28;;;;;;;2.50;1.20;;;;;;;;;;2083351;28;20072;-60
2022/04/15 04:17:48;;;;;;;1.33;1.23;;;;;;;;;;2085077;28;20052;-59
2022/04/15 04:19:07;;;;;;;1.42;1.33;;;;;;;;;;2084555;28;20108;-60
2022/04/15 04:20:26;;;;;;;1.90;1.40;;;;;;;;;;2084616;28;20120;-60
2022/04/15 04:21:45;;;;;;;3.40;1.58;;;;;;;;;;2086332;28;20107;-59
2022/04/15 04:23:04;;;;;;;1.50;1.40;;;;;;;;;;2083631;28;20026;-59
2022/04/15 04:24:23;;;;;;;1.88;1.48;;;;;;;;;;2085014;28;20029;-59
2022/04/15 04:25:42;;;;;;;1.70;1.35;;;;;;;;;;2086177;28;20056;-60
2022/04/15 04:27:01;;;;;;;2.10;1.70;;;;;;;;;;2085325;28;20060;-60
2022/04/15 04:28:20;;;;;;;2.60;1.50;;;;;;;;;;2087014;28;20499;-60
2022/04/15 04:29:39;;;;;;;1.73;1.40;;;;;;;;;;2084429;28;20092;-60
2022/04/15 04:30:58;;;;;;;4.13;1.35;;;;;;;;;;2083250;28;20120;-60
2022/04/15 04:32:17;;;;;;;2.35;1.58;;;;;;;;;;2084509;28;20499;-59
2022/04/15 04:33:36;;;;;;;3.17;1.65;;;;;;;;;;2083758;28;20041;-59
2022/04/15 04:34:55;;;;;;;2.40;1.60;;;;;;;;;;2086512;28;20059;-59
2022/04/15 04:36:14;;;;;;;1.42;1.25;;;;;;;;;;2085565;28;20395;-59
2022/04/15 04:37:33;;;;;;;3.05;1.63;;;;;;;;;;2088630;28;20030;-60
2022/04/15 04:38:52;;;;;;;1.75;1.55;;;;;;;;;;2087092;28;20029;-60
2022/04/15 04:40:11;;;;;;;2.47;1.42;;;;;;;;;;2086599;28;20017;-59
2022/04/15 04:41:30;;;;;;;2.42;1.30;;;;;;;;;;2087816;28;20499;-61
2022/04/15 04:42:50;;;;;;;2.10;1.40;;;;;;;;;;2086300;28;20037;-62
2022/04/15 04:44:09;;;;;;;3.05;1.58;;;;;;;;;;2078604;28;20022;-60
2022/04/15 04:45:29;;;;;;;2.88;1.40;;;;;;;;;;2084557;28;20104;-60
2022/04/15 04:46:48;;;;;;;1.67;1.58;;;;;;;;;;2086681;28;20484;-60
2022/04/15 04:48:07;;;;;;;1.60;1.50;;;;;;;;;;2087380;28;20033;-61
2022/04/15 04:49:26;;;;;;;2.05;1.20;;;;;;;;;;2087117;28;20029;-61
2022/04/15 04:50:46;;;;;;;1.42;1.33;;;;;;;;;;2087001;28;20084;-62
2022/04/15 04:52:05;;;;;;;4.20;1.50;;;;;;;;;;2086237;28;20030;-60
2022/04/15 04:53:24;;;;;;;1.73;1.27;;;;;;;;;;2089717;28;20021;-60
2022/04/15 04:54:44;;;;;;;1.50;1.40;;;;;;;;;;2087318;28;20025;-59
2022/04/15 04:56:03;;;;;;;1.55;1.45;;;;;;;;;;2084701;28;20034;-60
2022/04/15 04:57:22;;;;;;;2.85;1.50;;;;;;;;;;2086700;28;20103;-60
2022/04/15 04:58:41;;;;;;;3.20;1.30;;;;;;;;;;2086113;28;20025;-60
2022/04/15 05:00:01;;;;;;;2.50;1.75;;;;;;;;;;2087567;28;20483;-60
2022/04/15 05:01:19;;;;;;;3.08;1.48;;;;;;;;;;2088209;28;20088;-60
2022/04/15 05:02:38;;;;;;;2.10;1.55;;;;;;;;;;2086910;28;20107;-60
2022/04/15 05:03:57;;;;;;;2.15;1.75;;;;;;;;;;2085891;28;20029;-60
2022/04/15 05:05:16;;;;;;;3.28;1.60;;;;;;;;;;2085976;28;20021;-60
2022/04/15 05:06:35;;;;;;;5.20;1.58;;;;;;;;;;2085472;28;20028;-60
2022/04/15 05:07:54;;;;;;;5.70;2.67;;;;;;;;;;2085501;28;20026;-60
2022/04/15 05:09:13;;;;;;;3.45;1.60;;;;;;;;;;2081050;28;20025;-60
2022/04/15 05:10:32;;;;;;;4.03;1.88;;;;;;;;;;2083842;28;20479;-60
2022/04/15 05:11:51;;;;;;;2.08;1.60;;;;;;;;;;2084326;28;20026;-59
2022/04/15 05:13:10;;;;;;;1.63;1.45;;;;;;;;;;2088285;28;20026;-59
2022/04/15 05:14:29;;;;;;;4.72;1.70;;;;;;;;;;2093405;28;20110;-59
2022/04/15 05:15:48;;;;;;;2.42;1.30;;;;;;;;;;2089275;28;20026;-60
2022/04/15 05:17:07;;;;;;;2.35;1.65;;;;;;;;;;2085414;28;20021;-59
2022/04/15 05:18:26;;;;;;;2.00;1.40;;;;;;;;;;2087010;28;20029;-60
2022/04/15 05:19:45;;;;;;;2.75;1.60;;;;;;;;;;2087431;28;20025;-60
2022/04/15 05:21:04;;;;;;;1.70;1.60;;;;;;;;;;2085611;28;20029;-60
2022/04/15 05:22:23;;;;;;;1.85;1.60;;;;;;;;;;2086582;28;20532;-61
2022/04/15 05:23:42;;;;;;;2.47;1.45;;;;;;;;;;2084906;28;20025;-63
2022/04/15 05:25:01;;;;;;;3.08;1.60;;;;;;;;;;2088207;28;20014;-60
2022/04/15 05:26:20;;;;;;;2.70;1.60;;;;;;;;;;2086710;28;20033;-60
2022/04/15 05:27:39;;;;;;;2.30;1.67;;;;;;;;;;2087785;28;20021;-62
2022/04/15 05:28:58;;;;;;;2.45;1.45;;;;;;;;;;2086252;28;20033;-61
2022/04/15 05:30:17;;;;;;;1.98;1.40;;;;;;;;;;2084096;28;20060;-60
2022/04/15 05:31:36;;;;;;;1.27;1.17;;;;;;;;;;2085721;28;20029;-62
2022/04/15 05:32:55;;;;;;;1.50;1.20;;;;;;;;;;2086333;28;20025;-61
2022/04/15 05:34:14;;;;;;;2.92;1.30;;;;;;;;;;2087234;28;20061;-62
2022/04/15 05:35:33;;;;;;;5.10;1.38;;;;;;;;;;2085611;28;20030;-61
2022/04/15 05:36:52;;;;;;;2.58;1.30;;;;;;;;;;2087756;28;20414;-62
2022/04/15 05:38:10;;;;;;;1.65;1.20;;;;;;;;;;2086370;28;20041;-62
2022/04/15 05:39:29;;;;;;;1.02;1.02;;;;;;;;;;2087588;28;20033;-62
2022/04/15 05:40:48;;;;;;;1.95;1.13;;;;;;;;;;2087620;28;20072;-61
2022/04/15 05:42:07;;;;;;;1.50;1.27;;;;;;;;;;2085833;28;20030;-62
2022/04/15 05:43:26;;;;;;;3.60;1.13;;;;;;;;;;2085549;28;20029;-62
2022/04/15 05:44:45;;;;;;;2.92;1.55;;;;;;;;;;2085616;28;20033;-62
2022/04/15 05:46:04;;;;;;;3.13;1.45;;;;;;;;;;2087775;28;20379;-60
2022/04/15 05:47:23;;;;;;;2.05;1.45;;;;;;;;;;2086537;28;20026;-62
2022/04/15 05:48:42;;;;;;;1.25;1.00;;;;;;;;;;2086782;28;20026;-62
2022/04/15 05:50:01;;;;;;;1.80;1.10;;;;;;;;;;2087835;28;20076;-62
2022/04/15 05:51:20;;;;;;;2.17;1.20;;;;;;;;;;2089668;28;20029;-61
2022/04/15 05:52:39;;;;;;;1.10;1.00;;;;;;;;;;2086799;28;20033;-61
2022/04/15 05:53:58;;;;;;;3.03;1.02;;;;;;;;;;2088549;28;20025;-61
2022/04/15 05:55:17;;;;;;;1.52;1.10;;;;;;;;;;2087072;28;20025;-61
2022/04/15 05:56:36;;;;;;;8.15;1.67;;;;;;;;;;2087577;28;20065;-61
2022/04/15 05:57:55;;;;;;;2.03;1.08;;;;;;;;;;2085503;28;20425;-61
2022/04/15 05:59:14;;;;;;;1.10;0.77;;;;;;;;;;2085115;28;20029;-61
2022/04/15 06:00:33;;;;;;;1.23;0.88;;;;;;;;;;2086199;28;20060;-62
2022/04/15 06:01:52;;;;;;;0.75;0.75;;;;;;;;;;2086777;28;20025;-60
2022/04/15 06:03:11;;;;;;;2.42;0.85;;;;;;;;;;2087433;28;20017;-61
2022/04/15 06:04:30;;;;;;;1.42;0.88;;;;;;;;;;2084875;28;20022;-62
2022/04/15 06:05:49;;;;;;;2.90;0.77;;;;;;;;;;2086279;28;20026;-61
2022/04/15 06:07:08;;;;;;;1.17;0.68;;;;;;;;;;2086442;28;20476;-61
2022/04/15 06:08:28;;;;;;;2.95;0.70;;;;;;;;;;2085229;28;20037;-62
2022/04/15 06:09:47;;;;;;;1.80;0.82;;;;;;;;;;2087040;28;20403;-61
2022/04/15 06:11:06;;;;;;;3.05;0.82;;;;;;;;;;2084238;28;20029;-61
2022/04/15 06:12:54;;;;;;;0.98;0.80;;;;;;;;;;2086287;28;20542;-61
2022/04/15 06:14:11;;;;;;;0.85;0.85;;;;;;;;;;2085430;28;20112;-62
2022/04/15 06:15:34;;;;;;;3.10;1.05;;;;;;;;;;2084513;28;20029;-62
2022/04/15 06:16:55;;;;;;;1.92;0.80;;;;;;;;;;2086804;28;20109;-61
2022/04/15 06:18:14;;;;;;;0.77;0.77;;;;;;;;;;2086313;28;20550;-61
2022/04/15 06:19:33;;;;;;;2.67;0.80;;;;;;;;;;2087100;28;20026;-60
2022/04/15 06:20:52;;;;;;;2.85;1.10;;;;;;;;;;2085587;28;20021;-61
2022/04/15 06:22:11;;;;;;;0.80;0.80;;;;;;;;;;2093792;28;20499;-61
2022/04/15 06:23:30;;;;;;;1.02;0.70;;;;;;;;;;2090701;28;20045;-61
2022/04/15 06:24:48;;;;;;;0.85;0.70;;;;;;;;;;2087683;28;20026;-61
2022/04/15 06:26:07;;;;;;;1.70;0.68;;;;;;;;;;2085893;28;20025;-61
2022/04/15 06:27:26;;;;;;;1.25;0.70;;;;;;;;;;2087965;28;20017;-60
2022/04/15 06:28:45;;;;;;;1.23;0.60;;;;;;;;;;2085757;28;20057;-61
2022/04/15 06:30:07;;;;;;;3.05;1.55;;;;;;;;;;2088076;28;20057;-62
2022/04/15 06:31:26;;;;;;;0.98;0.90;;;;;;;;;;2087507;28;20116;-61
2022/04/15 06:32:45;;;;;;;2.95;0.70;;;;;;;;;;2085405;28;20577;-60
2022/04/15 06:34:04;;;;;;;1.02;0.77;;;;;;;;;;2088220;28;20025;-62
2022/04/15 06:35:23;;;;;;;2.80;0.70;;;;;;;;;;2086611;28;20045;-61
2022/04/15 06:36:42;;;;;;;1.23;0.68;;;;;;;;;;2083588;28;20410;-61
2022/04/15 06:38:01;;;;;;;3.65;1.00;;;;;;;;;;2085596;28;20033;-61
2022/04/15 06:39:21;;;;;;;1.20;0.88;;;;;;;;;;2085800;28;20037;-59
2022/04/15 06:40:40;;;;;;;3.35;1.00;;;;;;;;;;2084354;28;20029;-62
2022/04/15 06:41:59;;;;;;;0.77;0.75;;;;;;;;;;2085912;28;20438;-61
2022/04/15 06:43:18;;;;;;;1.27;0.77;;;;;;;;;;2086370;28;20037;-62
2022/04/15 06:44:36;;;;;;;1.90;0.73;;;;;;;;;;2085760;28;20491;-61
2022/04/15 06:45:56;;;;;;;2.60;0.90;;;;;;;;;;2086428;28;20491;-61
2022/04/15 06:47:15;;;;;;;2.17;0.60;;;;;;;;;;2085294;28;20063;-61
2022/04/15 06:48:34;;;;;;;0.70;0.68;;;;;;;;;;2087002;28;20060;-61
2022/04/15 06:49:53;;;;;;;4.00;0.80;;;;;;;;;;2087874;28;20112;-61
2022/04/15 06:51:12;;;;;;;2.10;0.70;;;;;;;;;;2085716;28;20029;-62
2022/04/15 06:52:31;;;;;;;3.15;0.70;;;;;;;;;;2084877;28;20025;-61
2022/04/15 06:53:50;;;;;;;13.02;1.10;;;;;;;;;;2086219;28;20072;-61
2022/04/15 06:55:09;;;;;;;3.30;0.95;;;;;;;;;;2087181;28;20033;-61
2022/04/15 06:56:28;;;;;;;1.92;0.70;;;;;;;;;;2085434;28;20033;-62
2022/04/15 06:57:47;;;;;;;1.65;0.63;;;;;;;;;;2084349;28;20179;-61
2022/04/15 06:59:06;;;;;;;1.67;0.60;;;;;;;;;;2086503;28;20029;-60
2022/04/15 07:00:25;;;;;;;2.17;0.95;;;;;;;;;;2086117;28;20025;-61
2022/04/15 07:01:44;;;;;;;2.80;0.73;;;;;;;;;;2085879;28;20017;-62
2022/04/15 07:03:04;;;;;;;1.30;0.70;;;;;;;;;;2083541;28;20022;-61
2022/04/15 07:04:23;;;;;;;1.50;0.70;;;;;;;;;;2084936;28;20065;-61
2022/04/15 07:05:42;;;;;;;1.23;0.73;;;;;;;;;;2086590;28;20029;-62
2022/04/15 07:07:01;;;;;;;2.75;0.73;;;;;;;;;;2086455;28;20021;-60
2022/04/15 07:08:20;;;;;;;3.13;0.60;;;;;;;;;;2085625;28;20508;-61
2022/04/15 07:09:39;;;;;;;3.33;0.75;;;;;;;;;;2087068;28;20025;-62
2022/04/15 07:10:58;;;;;;;0.55;0.45;;;;;;;;;;2087803;28;20475;-60
2022/04/15 07:12:17;;;;;;;0.50;0.50;;;;;;;;;;2085052;28;20021;-60
2022/04/15 07:13:36;;;;;;;2.30;0.60;;;;;;;;;;2085188;28;20022;-61
2022/04/15 07:14:57;;;;;;;2.25;0.80;;;;;;;;;;2085298;28;20025;-60
2022/04/15 07:16:16;;;;;;;1.20;0.65;;;;;;;;;;2086499;28;20384;-61
2022/04/15 07:17:35;;;;;;;1.17;0.70;;;;;;;;;;2084149;28;20045;-61
2022/04/15 07:18:56;;;;;;;0.93;0.50;;;;;;;;;;2084617;28;20037;-61
2022/04/15 07:20:15;;;;;;;0.90;0.55;;;;;;;;;;2084000;28;20503;-61
2022/04/15 07:21:34;;;;;;;1.02;0.50;;;;;;;;;;2085230;28;20116;-61
2022/04/15 07:22:57;;;;;;;0.98;0.73;;;;;;;;;;2085688;28;20427;-61
2022/04/15 07:24:16;;;;;;;0.77;0.50;;;;;;;;;;2084074;28;20041;-61
2022/04/15 07:25:35;;;;;;;3.47;0.52;;;;;;;;;;2084665;28;20041;-60
2022/04/15 07:26:53;;;;;;;2.28;0.47;;;;;;;;;;2086535;28;20439;-61
2022/04/15 07:28:12;;;;;;;2.83;0.60;;;;;;;;;;2084178;28;20402;-61
2022/04/15 07:29:32;;;;;;;2.65;0.75;;;;;;;;;;2086321;28;20034;-60
2022/04/15 07:30:51;;;;;;;2.45;0.77;;;;;;;;;;2085513;28;20104;-61
2022/04/15 07:32:10;;;;;;;1.02;0.40;;;;;;;;;;2084933;28;20033;-60
2022/04/15 07:33:29;;;;;;;3.60;1.70;;;;;;;;;;2085697;28;20049;-61
2022/04/15 07:34:49;;;;;;;1.60;0.88;;;;;;;;;;2084497;28;20026;-61
2022/04/15 07:36:31;;;;;;;0.70;0.70;;;;;;;;;;2085013;28;20105;-61
2022/04/15 07:37:47;;;;;;;3.22;0.60;;;;;;;;;;2085387;28;20016;-61
2022/04/15 07:39:07;;;;;;;1.48;0.70;;;;;;;;;;2085312;28;20489;-62
2022/04/15 07:40:28;;;;;;;2.33;0.82;;;;;;;;;;2085575;28;20021;-61
2022/04/15 07:41:47;;;;;;;1.38;0.60;;;;;;;;;;2086643;28;20033;-62
2022/04/15 07:43:06;;;;;;;0.75;0.60;;;;;;;;;;2084188;28;20021;-62
2022/04/15 07:44:25;;;;;;;0.80;0.47;;;;;;;;;;2084737;28;20492;-62
2022/04/15 07:45:44;;;;;;;1.15;0.50;;;;;;;;;;2082861;28;20033;-62
2022/04/15 07:47:03;;;;;;;2.28;0.52;;;;;;;;;;2081738;28;20518;-61
2022/04/15 07:48:22;;;;;;;0.70;0.40;;;;;;;;;;2084821;28;20387;-60
2022/04/15 07:49:41;;;;;;;2.58;0.50;;;;;;;;;;2085619;28;20099;-60
2022/04/15 07:50:59;;;;;;;0.45;0.43;;;;;;;;;;2085605;28;20032;-63
2022/04/15 07:52:18;;;;;;;2.00;0.50;;;;;;;;;;2084913;28;20384;-61
2022/04/15 07:53:37;;;;;;;3.60;0.60;;;;;;;;;;2085022;28;20488;-60
2022/04/15 07:54:56;;;;;;;1.33;0.60;;;;;;;;;;2084969;28;20487;-60
2022/04/15 07:56:15;;;;;;;1.50;0.70;;;;;;;;;;2086769;28;20029;-62